Time;durP1;ratioP1;P1;durP2;ratioP2;P2;SDS_P1;SDS_P2;PMS_P1;PMS_P2;Temp;Humidity;BMP_temperature;BMP_pressure;BME280_temperature;BME280_humidity;BME280_pressure;Samples;Min_cycle;Max_cycle;Signal;HPM_P1;HPM_P2
2022/04/28 00:00:32;;;;;;;4.63;3.93;;;;;;;;;;5050689;28;20241;-87
2022/04/28 00:02:59;;;;;;;9.13;4.13;;;;;;;;;;5052676;28;20198;-88
2022/04/28 00:05:26;;;;;;;4.93;4.50;;;;;;;;;;5053452;28;20233;-88
2022/04/28 00:07:53;;;;;;;4.53;4.13;;;;;;;;;;5055915;28;20201;-87
2022/04/28 00:10:22;;;;;;;3.87;3.50;;;;;;;;;;5055236;28;20241;-88
2022/04/28 00:12:49;;;;;;;6.50;4.53;;;;;;;;;;5055947;28;20206;-87
2022/04/28 00:15:16;;;;;;;4.53;3.70;;;;;;;;;;5055296;28;20240;-88
2022/04/28 00:17:43;;;;;;;6.17;4.63;;;;;;;;;;5055666;28;20632;-87
2022/04/28 00:20:10;;;;;;;3.80;3.50;;;;;;;;;;5054698;28;20709;-87
2022/04/28 00:22:37;;;;;;;4.30;3.13;;;;;;;;;;5055612;28;20210;-87
2022/04/28 00:25:05;;;;;;;3.97;3.63;;;;;;;;;;5054879;28;20241;-87
2022/04/28 00:27:34;;;;;;;5.50;3.83;;;;;;;;;;5055749;28;20221;-88
2022/04/28 00:30:01;;;;;;;6.13;4.30;;;;;;;;;;5054915;28;20234;-88
2022/04/28 00:32:28;;;;;;;5.37;4.87;;;;;;;;;;5055365;28;20202;-88
2022/04/28 00:34:55;;;;;;;6.27;4.47;;;;;;;;;;5054662;28;20234;-87
2022/04/28 00:37:22;;;;;;;4.90;4.27;;;;;;;;;;5055000;28;20216;-88
2022/04/28 00:39:49;;;;;;;8.37;4.27;;;;;;;;;;5054543;28;20233;-87
2022/04/28 00:42:17;;;;;;;4.67;4.23;;;;;;;;;;5058739;28;20642;-86
2022/04/28 00:44:46;;;;;;;4.10;3.80;;;;;;;;;;5056741;28;20629;-86
2022/04/28 00:47:13;;;;;;;4.50;4.10;;;;;;;;;;5057514;28;20264;-86
2022/04/28 00:52:26;;;;;;;5.60;5.03;;;;;;;;;;5060218;28;20181;-86
2022/04/28 00:54:53;;;;;;;5.07;4.67;;;;;;;;;;5057748;28;20308;-86
2022/04/28 00:57:21;;;;;;;6.83;4.53;;;;;;;;;;5057826;28;20210;-86
2022/04/28 00:59:51;;;;;;;5.37;4.70;;;;;;;;;;5055890;28;20229;-87
2022/04/28 01:02:18;;;;;;;5.50;5.00;;;;;;;;;;5054901;28;20206;-87
2022/04/28 01:04:46;;;;;;;5.73;4.73;;;;;;;;;;5054232;28;20245;-87
2022/04/28 01:07:13;;;;;;;5.17;4.67;;;;;;;;;;5050770;28;20212;-87
2022/04/28 01:09:41;;;;;;;6.23;4.97;;;;;;;;;;5053380;28;20234;-87
2022/04/28 01:12:09;;;;;;;7.73;5.40;;;;;;;;;;5054260;28;20236;-85
2022/04/28 01:14:36;;;;;;;6.13;5.53;;;;;;;;;;5053739;28;20580;-85
2022/04/28 01:17:04;;;;;;;7.03;5.33;;;;;;;;;;5053887;28;20218;-86
2022/04/28 01:19:32;;;;;;;5.47;4.97;;;;;;;;;;5053629;28;20248;-86
2022/04/28 01:22:00;;;;;;;8.30;5.53;;;;;;;;;;5054423;28;20213;-87
2022/04/28 01:24:27;;;;;;;5.33;4.90;;;;;;;;;;5053748;28;20598;-86
2022/04/28 01:26:55;;;;;;;5.83;5.20;;;;;;;;;;5054175;28;20213;-87
2022/04/28 01:29:23;;;;;;;6.40;5.53;;;;;;;;;;5053215;28;20356;-87
2022/04/28 01:31:50;;;;;;;7.53;6.17;;;;;;;;;;5053842;28;20716;-87
2022/04/28 01:34:17;;;;;;;8.37;5.47;;;;;;;;;;5053565;28;20230;-87
2022/04/28 01:36:44;;;;;;;5.33;4.83;;;;;;;;;;5054303;28;20566;-88
2022/04/28 01:39:13;;;;;;;5.50;5.03;;;;;;;;;;5053265;28;20237;-88
2022/04/28 01:41:40;;;;;;;5.63;5.13;;;;;;;;;;5054134;28;20206;-87
2022/04/28 01:44:07;;;;;;;6.30;5.47;;;;;;;;;;5053444;28;20212;-88
2022/04/28 01:46:34;;;;;;;7.33;5.37;;;;;;;;;;5053573;28;20213;-87
2022/04/28 01:49:01;;;;;;;7.83;4.97;;;;;;;;;;5053157;28;20547;-87
2022/04/28 01:56:59;;;;;;;5.07;4.67;;;;;;;;;;5053679;28;20204;-87
2022/04/28 01:59:26;;;;;;;5.60;4.90;;;;;;;;;;5052783;28;20651;-87
2022/04/28 02:01:53;;;;;;;5.27;4.77;;;;;;;;;;5053389;28;20216;-88
2022/04/28 02:04:20;;;;;;;7.53;5.17;;;;;;;;;;5052695;28;20244;-88
2022/04/28 02:06:47;;;;;;;5.67;5.07;;;;;;;;;;5053627;28;20206;-87
2022/04/28 02:09:15;;;;;;;7.80;5.20;;;;;;;;;;5052739;28;20244;-87
2022/04/28 02:11:42;;;;;;;7.80;6.03;;;;;;;;;;5053635;28;20237;-87
2022/04/28 02:14:09;;;;;;;5.70;5.20;;;;;;;;;;5053156;28;20241;-88
2022/04/28 02:16:37;;;;;;;10.03;5.50;;;;;;;;;;5053178;28;20205;-87
2022/04/28 02:19:04;;;;;;;6.03;5.43;;;;;;;;;;5052271;28;20678;-88
2022/04/28 02:21:31;;;;;;;6.03;5.50;;;;;;;;;;5058281;28;20213;-88
2022/04/28 02:23:58;;;;;;;5.60;5.10;;;;;;;;;;5053481;28;20210;-87
2022/04/28 02:26:26;;;;;;;5.30;4.80;;;;;;;;;;5053662;28;20208;-87
2022/04/28 02:28:53;;;;;;;5.77;5.13;;;;;;;;;;5052096;28;20213;-88
2022/04/28 02:31:20;;;;;;;7.10;5.60;;;;;;;;;;5053335;28;20233;-87
2022/04/28 02:33:47;;;;;;;5.73;5.23;;;;;;;;;;5052531;28;20213;-87
2022/04/28 02:36:14;;;;;;;7.03;5.17;;;;;;;;;;5052989;28;20612;-87
2022/04/28 02:38:41;;;;;;;6.13;4.97;;;;;;;;;;5052782;28;20208;-88
2022/04/28 02:41:08;;;;;;;6.00;4.90;;;;;;;;;;5052110;28;20244;-87
2022/04/28 02:43:37;;;;;;;6.17;5.53;;;;;;;;;;5052998;28;20214;-88
2022/04/28 02:46:04;;;;;;;5.73;5.20;;;;;;;;;;5052006;28;20240;-87
2022/04/28 02:48:32;;;;;;;5.60;5.10;;;;;;;;;;5052459;28;20263;-87
2022/04/28 02:50:59;;;;;;;5.20;4.70;;;;;;;;;;5051794;28;20321;-87
2022/04/28 02:53:26;;;;;;;5.17;4.67;;;;;;;;;;5052970;28;20209;-87
2022/04/28 02:55:53;;;;;;;5.73;5.23;;;;;;;;;;5051788;28;20237;-87
2022/04/28 02:58:20;;;;;;;5.83;4.67;;;;;;;;;;5053489;28;20205;-87
2022/04/28 03:00:48;;;;;;;5.70;5.10;;;;;;;;;;5051957;28;20738;-86
2022/04/28 03:03:15;;;;;;;5.83;5.33;;;;;;;;;;5052648;28;20218;-86
2022/04/28 03:11:12;;;;;;;4.83;4.33;;;;;;;;;;5053736;28;20245;-87
2022/04/28 03:13:39;;;;;;;4.80;4.40;;;;;;;;;;5052618;28;20208;-86
2022/04/28 03:16:07;;;;;;;4.83;4.37;;;;;;;;;;5051802;28;20236;-86
2022/04/28 03:18:35;;;;;;;5.20;4.70;;;;;;;;;;5052789;28;20227;-86
2022/04/28 03:21:02;;;;;;;5.20;4.43;;;;;;;;;;5056707;28;20237;-86
2022/04/28 03:23:29;;;;;;;4.97;4.57;;;;;;;;;;5056508;28;20209;-86
2022/04/28 03:25:56;;;;;;;4.93;4.57;;;;;;;;;;5053534;28;20233;-88
2022/04/28 03:28:23;;;;;;;5.03;4.63;;;;;;;;;;5054068;28;20212;-86
2022/04/28 03:30:51;;;;;;;4.13;3.83;;;;;;;;;;5051726;28;20237;-86
2022/04/28 03:33:19;;;;;;;4.70;4.30;;;;;;;;;;5052886;28;20700;-85
2022/04/28 03:35:46;;;;;;;4.93;4.47;;;;;;;;;;5051842;28;20257;-85
2022/04/28 03:38:13;;;;;;;5.47;4.27;;;;;;;;;;5053189;28;20580;-85
2022/04/28 03:40:41;;;;;;;5.47;4.47;;;;;;;;;;5052072;28;20241;-87
2022/04/28 03:43:08;;;;;;;16.30;5.20;;;;;;;;;;5053135;28;20557;-85
2022/04/28 03:45:35;;;;;;;4.97;4.50;;;;;;;;;;5052659;28;20327;-85
2022/04/28 03:48:03;;;;;;;4.27;3.97;;;;;;;;;;5053014;28;20216;-85
2022/04/28 03:50:32;;;;;;;4.33;4.03;;;;;;;;;;5052341;28;20241;-85
2022/04/28 03:52:59;;;;;;;4.33;4.03;;;;;;;;;;5052839;28;20226;-85
2022/04/28 03:55:26;;;;;;;7.07;4.27;;;;;;;;;;5051860;28;20249;-86
2022/04/28 03:57:54;;;;;;;4.97;4.57;;;;;;;;;;5052965;28;20202;-85
2022/04/28 04:00:21;;;;;;;4.47;4.03;;;;;;;;;;5089758;23;20237;-83
2022/04/28 04:02:48;;;;;;;4.70;4.30;;;;;;;;;;5122482;28;20197;-83
2022/04/28 04:05:16;;;;;;;7.60;4.33;;;;;;;;;;5113731;28;20236;-84
2022/04/28 04:07:44;;;;;;;4.60;4.20;;;;;;;;;;5114310;28;20205;-84
2022/04/28 04:10:11;;;;;;;4.70;4.30;;;;;;;;;;5104920;28;20247;-82
2022/04/28 04:12:39;;;;;;;7.77;4.23;;;;;;;;;;5077991;28;20231;-82
2022/04/28 04:15:06;;;;;;;7.20;4.33;;;;;;;;;;5074933;28;20234;-83
2022/04/28 04:17:40;;;;;;;4.53;4.23;;;;;;;;;;5075951;28;20209;-83
2022/04/28 04:20:08;;;;;;;4.03;3.73;;;;;;;;;;5075776;28;20284;-82
2022/04/28 04:22:35;;;;;;;14.57;4.27;;;;;;;;;;5075901;28;20206;-82
2022/04/28 04:25:04;;;;;;;4.00;3.70;;;;;;;;;;5073529;28;20603;-82
2022/04/28 04:27:31;;;;;;;4.77;3.73;;;;;;;;;;5088099;28;20204;-83
2022/04/28 04:29:58;;;;;;;3.90;3.60;;;;;;;;;;5092327;28;20225;-84
2022/04/28 04:32:25;;;;;;;4.23;3.90;;;;;;;;;;5093414;28;20225;-84
2022/04/28 04:34:52;;;;;;;4.17;3.77;;;;;;;;;;5092828;28;20227;-85
2022/04/28 04:37:20;;;;;;;5.10;4.57;;;;;;;;;;5093799;28;20196;-85
2022/04/28 04:39:47;;;;;;;5.00;4.50;;;;;;;;;;5093128;28;20244;-84
2022/04/28 04:42:15;;;;;;;6.83;4.80;;;;;;;;;;5092111;28;20194;-84
2022/04/28 04:44:42;;;;;;;8.50;4.20;;;;;;;;;;5083931;28;20235;-84
2022/04/28 04:47:09;;;;;;;7.97;4.70;;;;;;;;;;5076153;28;20207;-84
2022/04/28 04:49:36;;;;;;;6.40;5.20;;;;;;;;;;5074159;28;20723;-83
2022/04/28 04:52:04;;;;;;;5.90;5.00;;;;;;;;;;5075007;28;20233;-83
2022/04/28 04:54:31;;;;;;;5.37;4.93;;;;;;;;;;5078626;28;20251;-83
2022/04/28 04:56:58;;;;;;;5.33;4.93;;;;;;;;;;5078477;28;20197;-83
2022/04/28 04:59:26;;;;;;;4.90;4.50;;;;;;;;;;5077408;28;20231;-83
2022/04/28 05:01:53;;;;;;;5.47;4.97;;;;;;;;;;5077823;28;20206;-83
2022/04/28 05:04:20;;;;;;;5.10;4.63;;;;;;;;;;5077453;28;20235;-83
2022/04/28 05:06:47;;;;;;;6.03;5.47;;;;;;;;;;5081542;28;20207;-83
2022/04/28 05:09:15;;;;;;;7.37;5.33;;;;;;;;;;5082771;28;20230;-82
2022/04/28 05:11:42;;;;;;;7.50;5.93;;;;;;;;;;5080036;28;20666;-79
2022/04/28 05:14:09;;;;;;;7.90;6.57;;;;;;;;;;5078182;28;20591;-80
2022/04/28 05:16:38;;;;;;;7.93;7.13;;;;;;;;;;5078580;28;20213;-80
2022/04/28 05:19:05;;;;;;;7.47;6.77;;;;;;;;;;5077872;28;20207;-79
2022/04/28 05:21:32;;;;;;;9.13;7.57;;;;;;;;;;5092394;28;20238;-81
2022/04/28 05:23:59;;;;;;;8.67;6.93;;;;;;;;;;5093437;28;20210;-80
2022/04/28 05:26:26;;;;;;;9.97;8.17;;;;;;;;;;5095111;28;20205;-80
2022/04/28 05:28:53;;;;;;;10.50;7.97;;;;;;;;;;5093875;28;20196;-81
2022/04/28 05:31:20;;;;;;;10.40;8.30;;;;;;;;;;5092161;28;20227;-81
2022/04/28 05:33:49;;;;;;;12.60;9.70;;;;;;;;;;5082776;28;20208;-79
2022/04/28 05:36:16;;;;;;;14.47;9.97;;;;;;;;;;5077407;28;20315;-81
2022/04/28 05:38:44;;;;;;;12.63;10.53;;;;;;;;;;5077955;28;20208;-79
2022/04/28 05:41:11;;;;;;;14.63;11.73;;;;;;;;;;5077495;28;20228;-81
2022/04/28 05:46:25;;;;;;;16.83;11.83;;;;;;;;;;5081885;28;20260;-81
2022/04/28 05:48:54;;;;;;;16.10;12.63;;;;;;;;;;5081117;28;20201;-81
2022/04/28 05:51:21;;;;;;;16.87;12.20;;;;;;;;;;5081375;28;20231;-81
2022/04/28 05:53:48;;;;;;;15.83;12.40;;;;;;;;;;5081267;28;20304;-81
2022/04/28 05:56:15;;;;;;;20.27;13.70;;;;;;;;;;5085965;28;20216;-81
2022/04/28 05:58:42;;;;;;;25.00;15.13;;;;;;;;;;5081482;28;20213;-81
2022/04/28 06:01:09;;;;;;;20.63;15.07;;;;;;;;;;5080903;28;20672;-81
2022/04/28 06:03:36;;;;;;;19.00;14.60;;;;;;;;;;5080807;28;21004;-80
2022/04/28 06:06:05;;;;;;;19.17;14.40;;;;;;;;;;5080555;28;20244;-81
2022/04/28 06:08:32;;;;;;;15.07;12.73;;;;;;;;;;5081437;28;20216;-80
2022/04/28 06:11:01;;;;;;;15.43;12.70;;;;;;;;;;5080653;28;20241;-81
2022/04/28 06:13:28;;;;;;;16.50;13.20;;;;;;;;;;5080945;28;20228;-81
2022/04/28 06:15:56;;;;;;;13.30;11.90;;;;;;;;;;5080740;28;20233;-81
2022/04/28 06:18:23;;;;;;;14.07;10.83;;;;;;;;;;5080536;28;20856;-80
2022/04/28 06:20:50;;;;;;;14.93;10.53;;;;;;;;;;5080307;28;20252;-81
2022/04/28 06:23:18;;;;;;;13.57;10.07;;;;;;;;;;5082159;28;20208;-81
2022/04/28 06:25:45;;;;;;;10.10;9.10;;;;;;;;;;5080583;28;20255;-82
2022/04/28 06:28:13;;;;;;;11.67;8.70;;;;;;;;;;5081178;28;20689;-84
2022/04/28 06:30:40;;;;;;;9.17;8.23;;;;;;;;;;5080228;28;20245;-80
2022/04/28 06:33:08;;;;;;;11.23;9.30;;;;;;;;;;5080719;28;20656;-82
2022/04/28 06:35:35;;;;;;;9.77;8.70;;;;;;;;;;5079216;28;20264;-81
2022/04/28 06:38:02;;;;;;;13.20;9.37;;;;;;;;;;5080859;28;20202;-81
2022/04/28 06:40:31;;;;;;;11.23;8.90;;;;;;;;;;5079074;28;20237;-81
2022/04/28 06:42:58;;;;;;;11.23;8.23;;;;;;;;;;5080121;28;20204;-81
2022/04/28 06:45:25;;;;;;;10.83;8.53;;;;;;;;;;5079712;28;20233;-80
2022/04/28 06:47:52;;;;;;;11.07;8.47;;;;;;;;;;5080286;28;20216;-81
2022/04/28 06:50:19;;;;;;;10.30;7.93;;;;;;;;;;5079583;28;20237;-81
2022/04/28 06:52:46;;;;;;;9.40;8.50;;;;;;;;;;5078553;28;20236;-82
2022/04/28 06:55:13;;;;;;;10.33;7.93;;;;;;;;;;5079086;28;20240;-80
2022/04/28 06:57:42;;;;;;;8.83;7.93;;;;;;;;;;5079594;28;20205;-81
2022/04/28 07:00:10;;;;;;;8.40;7.60;;;;;;;;;;5078244;28;20244;-81
2022/04/28 07:02:37;;;;;;;7.87;7.10;;;;;;;;;;5078418;28;20216;-83
2022/04/28 07:05:05;;;;;;;9.07;6.60;;;;;;;;;;5075353;28;20248;-83
2022/04/28 07:07:32;;;;;;;10.50;7.33;;;;;;;;;;5074693;28;20209;-83
2022/04/28 07:09:59;;;;;;;7.10;6.43;;;;;;;;;;5077592;28;20233;-81
2022/04/28 07:12:26;;;;;;;11.50;7.00;;;;;;;;;;5079131;28;20221;-81
2022/04/28 07:14:54;;;;;;;7.00;6.40;;;;;;;;;;5078350;28;20244;-81
2022/04/28 07:17:21;;;;;;;7.23;6.37;;;;;;;;;;5079335;28;20205;-82
2022/04/28 07:19:48;;;;;;;7.80;6.07;;;;;;;;;;5078688;28;20264;-81
2022/04/28 07:22:16;;;;;;;8.00;6.67;;;;;;;;;;5078559;28;20588;-81
2022/04/28 07:24:43;;;;;;;7.83;6.40;;;;;;;;;;5078025;28;20237;-82
2022/04/28 07:27:10;;;;;;;7.60;5.67;;;;;;;;;;5079634;28;20209;-81
2022/04/28 07:29:37;;;;;;;7.70;5.90;;;;;;;;;;5078816;28;20236;-82
2022/04/28 07:32:07;;;;;;;6.97;6.27;;;;;;;;;;5079322;28;20229;-81
2022/04/28 07:34:34;;;;;;;6.17;5.57;;;;;;;;;;5078858;28;20239;-81
2022/04/28 07:37:01;;;;;;;7.13;5.60;;;;;;;;;;5080571;28;20205;-83
2022/04/28 07:39:28;;;;;;;8.53;5.70;;;;;;;;;;5079051;28;20716;-82
2022/04/28 07:41:55;;;;;;;5.67;5.17;;;;;;;;;;5078683;28;20209;-83
2022/04/28 07:44:22;;;;;;;7.17;5.13;;;;;;;;;;5079198;28;20614;-83
2022/04/28 07:46:49;;;;;;;6.00;5.00;;;;;;;;;;5078404;28;20826;-82
2022/04/28 07:49:18;;;;;;;4.57;4.17;;;;;;;;;;5077165;28;20237;-83
2022/04/28 07:51:45;;;;;;;4.73;4.23;;;;;;;;;;5078337;28;20221;-81
2022/04/28 07:54:12;;;;;;;6.40;4.93;;;;;;;;;;5079924;28;20237;-83
2022/04/28 07:56:39;;;;;;;4.70;4.27;;;;;;;;;;5079800;28;20213;-81
2022/04/28 07:59:07;;;;;;;5.67;4.37;;;;;;;;;;5079170;28;20237;-83
2022/04/28 08:01:34;;;;;;;5.03;4.53;;;;;;;;;;5079963;28;20232;-82
2022/04/28 08:04:01;;;;;;;4.60;4.20;;;;;;;;;;5080665;28;20671;-82
2022/04/28 08:06:30;;;;;;;4.90;4.50;;;;;;;;;;5081159;28;20205;-83
2022/04/28 08:08:57;;;;;;;6.63;4.67;;;;;;;;;;5079210;28;20731;-82
2022/04/28 08:11:24;;;;;;;5.90;5.33;;;;;;;;;;5080651;28;20221;-82
2022/04/28 08:13:51;;;;;;;7.00;4.77;;;;;;;;;;5077921;28;20232;-82
2022/04/28 08:16:18;;;;;;;5.10;4.70;;;;;;;;;;5079350;28;20211;-82
2022/04/28 08:18:45;;;;;;;5.40;4.90;;;;;;;;;;5076538;28;20783;-82
2022/04/28 08:21:12;;;;;;;5.53;4.90;;;;;;;;;;5076922;28;20229;-82
2022/04/28 08:23:40;;;;;;;4.97;4.57;;;;;;;;;;5078648;28;20205;-83
2022/04/28 08:26:07;;;;;;;5.27;4.60;;;;;;;;;;5077064;28;20233;-82
2022/04/28 08:28:35;;;;;;;5.97;4.50;;;;;;;;;;5079130;28;20216;-83
2022/04/28 08:31:02;;;;;;;4.82;4.40;;;;;;;;;;5079294;28;20243;-83
2022/04/28 08:33:29;;;;;;;5.80;5.30;;;;;;;;;;5080207;28;20232;-83
2022/04/28 08:35:56;;;;;;;5.22;4.75;;;;;;;;;;5078907;28;20233;-83
2022/04/28 08:38:24;;;;;;;5.30;4.80;;;;;;;;;;5079162;28;20713;-84
2022/04/28 08:40:55;;;;;;;8.30;4.57;;;;;;;;;;5079703;28;20312;-82
2022/04/28 08:43:22;;;;;;;5.30;4.90;;;;;;;;;;5079103;28;20186;-83
2022/04/28 08:48:40;;;;;;;4.75;4.35;;;;;;;;;;5078414;28;20181;-84
2022/04/28 08:51:09;;;;;;;4.80;4.40;;;;;;;;;;5077933;28;20236;-83
2022/04/28 08:53:36;;;;;;;6.20;4.97;;;;;;;;;;5077955;28;20554;-83
2022/04/28 08:56:04;;;;;;;4.82;4.40;;;;;;;;;;5076737;28;20238;-84
2022/04/28 08:58:32;;;;;;;4.50;4.10;;;;;;;;;;5078262;28;20232;-84
2022/04/28 09:00:59;;;;;;;4.90;4.40;;;;;;;;;;5083135;28;20236;-83
2022/04/28 09:03:26;;;;;;;4.78;4.20;;;;;;;;;;5096913;28;20200;-84
2022/04/28 09:05:53;;;;;;;5.53;4.45;;;;;;;;;;5096558;28;20251;-83
2022/04/28 09:08:20;;;;;;;4.55;4.15;;;;;;;;;;5096083;28;20209;-85
2022/04/28 09:10:47;;;;;;;4.80;4.40;;;;;;;;;;5095528;28;20240;-84
2022/04/28 09:16:01;;;;;;;4.70;4.30;;;;;;;;;;5095634;28;20240;-84
2022/04/28 09:18:28;;;;;;;4.80;3.80;;;;;;;;;;5095606;28;20212;-83
2022/04/28 09:20:56;;;;;;;4.35;3.95;;;;;;;;;;5095458;28;20320;-84
2022/04/28 09:23:23;;;;;;;4.10;3.67;;;;;;;;;;5095585;28;20204;-84
2022/04/28 09:25:51;;;;;;;5.28;3.20;;;;;;;;;;5094676;28;20228;-84
2022/04/28 09:28:19;;;;;;;4.53;3.30;;;;;;;;;;5095163;28;20208;-84
2022/04/28 09:30:49;;;;;;;3.95;3.47;;;;;;;;;;5095009;28;20244;-84
2022/04/28 09:33:17;;;;;;;3.78;2.65;;;;;;;;;;5095390;28;20233;-84
2022/04/28 09:35:45;;;;;;;3.83;3.42;;;;;;;;;;5094916;28;20237;-85
2022/04/28 09:38:12;;;;;;;3.58;3.28;;;;;;;;;;5094555;28;20236;-85
2022/04/28 09:43:26;;;;;;;2.58;2.33;;;;;;;;;;5094731;28;20207;-84
2022/04/28 09:45:53;;;;;;;3.38;2.80;;;;;;;;;;5094180;28;20667;-84
2022/04/28 09:48:20;;;;;;;4.50;3.40;;;;;;;;;;5094548;28;20205;-84
2022/04/28 09:50:48;;;;;;;3.92;3.63;;;;;;;;;;5094842;28;20244;-84
2022/04/28 09:53:15;;;;;;;3.50;3.20;;;;;;;;;;5108687;28;20235;-84
2022/04/28 09:55:43;;;;;;;4.22;3.15;;;;;;;;;;5113525;28;20236;-84
2022/04/28 09:58:11;;;;;;;3.10;2.80;;;;;;;;;;5113529;28;20201;-84
2022/04/28 10:00:40;;;;;;;3.83;3.20;;;;;;;;;;5105565;23;20230;-87
2022/04/28 10:03:09;;;;;;;3.00;2.80;;;;;;;;;;5066573;28;20214;-86
2022/04/28 10:05:37;;;;;;;3.35;2.83;;;;;;;;;;5090166;28;20298;-88
2022/04/28 10:08:05;;;;;;;3.40;2.88;;;;;;;;;;5095188;28;20212;-88
2022/04/28 10:10:32;;;;;;;5.13;2.58;;;;;;;;;;5088065;28;20286;-88
2022/04/28 10:13:01;;;;;;;3.00;2.80;;;;;;;;;;5074262;28;20229;-88
2022/04/28 10:15:28;;;;;;;3.47;2.78;;;;;;;;;;5074332;28;20233;-87
2022/04/28 10:17:59;;;;;;;3.10;2.90;;;;;;;;;;5074240;28;20205;-86
2022/04/28 10:20:30;;;;;;;2.80;2.60;;;;;;;;;;5073629;28;20241;-88
2022/04/28 10:22:58;;;;;;;3.70;3.30;;;;;;;;;;5074648;28;20205;-88
2022/04/28 10:33:46;;;;;;;2.40;2.30;;;;;;;;;;5073669;28;20676;-87
2022/04/28 10:36:17;;;;;;;2.70;2.47;;;;;;;;;;5073729;28;20229;-88
2022/04/28 10:39:03;;;;;;;2.53;2.33;;;;;;;;;;5074056;28;20684;-87
2022/04/28 10:41:31;;;;;;;2.47;2.28;;;;;;;;;;5073618;28;20240;-89
2022/04/28 10:43:59;;;;;;;3.75;3.00;;;;;;;;;;5073123;28;20212;-88
2022/04/28 10:46:33;;;;;;;2.92;2.72;;;;;;;;;;5075496;28;20673;-88
2022/04/28 10:49:05;;;;;;;2.95;2.28;;;;;;;;;;5054372;28;20576;-88
2022/04/28 10:51:32;;;;;;;2.60;2.40;;;;;;;;;;5054249;28;20230;-87
2022/04/28 10:54:01;;;;;;;2.97;2.22;;;;;;;;;;5052511;28;20720;-87
2022/04/28 10:56:29;;;;;;;2.53;2.33;;;;;;;;;;5053555;28;20217;-87
2022/04/28 10:59:03;;;;;;;3.63;2.20;;;;;;;;;;5052326;28;20213;-87
2022/04/28 11:01:32;;;;;;;2.60;2.40;;;;;;;;;;5052355;28;20241;-87
2022/04/28 11:04:00;;;;;;;3.30;2.50;;;;;;;;;;5052338;28;20205;-86
2022/04/28 11:06:32;;;;;;;2.88;2.47;;;;;;;;;;5052715;28;20210;-88
2022/04/28 11:09:00;;;;;;;2.47;2.28;;;;;;;;;;5052367;28;20656;-87
2022/04/28 11:11:29;;;;;;;2.33;2.00;;;;;;;;;;5052789;28;20220;-87
2022/04/28 11:13:58;;;;;;;2.38;2.17;;;;;;;;;;5052448;28;20244;-87
2022/04/28 11:16:26;;;;;;;2.83;2.63;;;;;;;;;;5052553;28;20238;-87
2022/04/28 11:18:53;;;;;;;2.40;2.20;;;;;;;;;;5052842;28;20198;-87
2022/04/28 11:21:20;;;;;;;3.75;2.22;;;;;;;;;;5053728;28;20252;-87
2022/04/28 11:23:51;;;;;;;2.60;2.40;;;;;;;;;;5071165;28;20210;-87
2022/04/28 11:26:19;;;;;;;2.35;2.15;;;;;;;;;;5076389;28;20209;-89
2022/04/28 11:28:46;;;;;;;3.30;2.17;;;;;;;;;;5076075;28;20208;-89
2022/04/28 11:31:14;;;;;;;3.03;2.50;;;;;;;;;;5076839;28;20206;-89
2022/04/28 11:33:42;;;;;;;2.17;2.08;;;;;;;;;;5077126;28;20225;-91
2022/04/28 11:36:17;;;;;;;2.72;2.00;;;;;;;;;;5073393;28;20250;-91
2022/04/28 11:38:51;;;;;;;4.03;2.53;;;;;;;;;;5075888;28;20309;-88
2022/04/28 11:41:18;;;;;;;2.40;2.20;;;;;;;;;;5076185;28;20201;-88
2022/04/28 11:43:47;;;;;;;3.30;2.00;;;;;;;;;;5075563;28;20195;-87
2022/04/28 11:46:14;;;;;;;3.20;2.08;;;;;;;;;;5055509;28;20237;-87
2022/04/28 11:48:41;;;;;;;3.03;2.38;;;;;;;;;;5053499;28;20197;-88
2022/04/28 11:51:08;;;;;;;2.92;2.25;;;;;;;;;;5053109;28;20612;-87
2022/04/28 11:53:42;;;;;;;2.42;2.25;;;;;;;;;;5053836;28;20226;-88
2022/04/28 11:56:20;;;;;;;2.45;2.25;;;;;;;;;;5051853;28;20240;-88
2022/04/28 11:58:48;;;;;;;2.70;2.40;;;;;;;;;;5052046;28;20205;-88
2022/04/28 12:01:15;;;;;;;2.53;2.25;;;;;;;;;;5053152;28;20233;-87
2022/04/28 12:03:48;;;;;;;3.53;2.50;;;;;;;;;;5056839;28;20206;-87
2022/04/28 12:06:17;;;;;;;2.65;2.13;;;;;;;;;;5056022;28;20584;-88
2022/04/28 12:08:48;;;;;;;2.30;2.10;;;;;;;;;;5055887;28;20244;-88
2022/04/28 12:19:28;;;;;;;3.47;2.40;;;;;;;;;;5055388;28;20699;-87
2022/04/28 12:21:55;;;;;;;3.58;2.58;;;;;;;;;;5056205;28;20226;-87
2022/04/28 12:24:22;;;;;;;3.10;2.35;;;;;;;;;;5055559;28;20317;-87
2022/04/28 12:26:51;;;;;;;3.20;2.30;;;;;;;;;;5055751;28;20628;-87
2022/04/28 12:29:20;;;;;;;2.35;2.15;;;;;;;;;;5054848;28;20740;-87
2022/04/28 12:31:47;;;;;;;2.33;2.17;;;;;;;;;;5055727;28;20225;-87
2022/04/28 12:34:17;;;;;;;2.50;2.30;;;;;;;;;;5055332;28;20287;-87
2022/04/28 12:36:45;;;;;;;2.60;2.40;;;;;;;;;;5055834;28;20260;-88
2022/04/28 12:39:12;;;;;;;3.45;2.38;;;;;;;;;;5055391;28;20234;-88
2022/04/28 12:41:43;;;;;;;2.42;2.22;;;;;;;;;;5055700;28;20241;-87
2022/04/28 12:44:10;;;;;;;2.40;2.15;;;;;;;;;;5055191;28;20234;-88
2022/04/28 12:46:39;;;;;;;3.60;2.30;;;;;;;;;;5055511;28;20213;-87
2022/04/28 12:49:08;;;;;;;3.35;2.35;;;;;;;;;;5054920;28;20640;-87
2022/04/28 12:51:42;;;;;;;2.50;2.30;;;;;;;;;;5055494;28;20232;-87
2022/04/28 12:54:10;;;;;;;2.53;1.88;;;;;;;;;;5055044;28;20264;-88
2022/04/28 12:56:37;;;;;;;2.25;2.08;;;;;;;;;;5055238;28;20678;-88
2022/04/28 12:59:05;;;;;;;2.20;2.00;;;;;;;;;;5054760;28;20236;-87
2022/04/28 13:01:32;;;;;;;2.63;2.40;;;;;;;;;;5055306;28;20237;-87
2022/04/28 13:04:03;;;;;;;2.58;2.40;;;;;;;;;;5054635;28;20206;-87
2022/04/28 13:06:31;;;;;;;2.33;2.13;;;;;;;;;;5055794;28;20190;-87
2022/04/28 13:09:00;;;;;;;2.70;2.50;;;;;;;;;;5055396;28;20198;-88
2022/04/28 13:11:28;;;;;;;4.10;2.30;;;;;;;;;;5057599;28;20232;-87
2022/04/28 13:13:56;;;;;;;2.53;2.33;;;;;;;;;;5055359;28;20221;-87
2022/04/28 13:16:23;;;;;;;2.38;2.28;;;;;;;;;;5056328;28;20284;-87
2022/04/28 13:18:51;;;;;;;3.00;2.58;;;;;;;;;;5056366;28;20217;-88
2022/04/28 13:21:19;;;;;;;2.60;2.40;;;;;;;;;;5056651;28;20214;-88
2022/04/28 13:23:47;;;;;;;2.70;2.50;;;;;;;;;;5055907;28;20202;-87
2022/04/28 13:26:16;;;;;;;2.40;2.20;;;;;;;;;;5055664;28;20300;-88
2022/04/28 13:28:43;;;;;;;2.97;2.55;;;;;;;;;;5055981;28;20393;-88
2022/04/28 13:31:12;;;;;;;3.42;2.20;;;;;;;;;;5054800;28;20242;-87
2022/04/28 13:33:39;;;;;;;2.28;2.15;;;;;;;;;;5055566;28;20256;-88
2022/04/28 13:36:07;;;;;;;5.25;2.55;;;;;;;;;;5055033;28;20229;-88
2022/04/28 13:38:36;;;;;;;2.40;2.20;;;;;;;;;;5056470;28;20202;-88
2022/04/28 13:41:04;;;;;;;3.45;2.30;;;;;;;;;;5054422;28;20241;-87
2022/04/28 13:43:32;;;;;;;2.45;2.30;;;;;;;;;;5055160;28;20202;-88
2022/04/28 13:46:01;;;;;;;2.88;2.40;;;;;;;;;;5037088;28;20241;-88
2022/04/28 13:48:29;;;;;;;5.47;2.75;;;;;;;;;;5055062;28;20297;-88
2022/04/28 13:50:56;;;;;;;2.88;2.67;;;;;;;;;;5043579;28;20242;-88
2022/04/28 13:53:27;;;;;;;2.47;2.17;;;;;;;;;;5054847;28;20688;-87
2022/04/28 13:55:56;;;;;;;2.97;2.38;;;;;;;;;;5054632;28;20242;-87
2022/04/28 13:58:24;;;;;;;2.55;2.28;;;;;;;;;;5054798;28;20264;-89
2022/04/28 14:00:52;;;;;;;2.63;2.42;;;;;;;;;;5054266;28;20234;-88
2022/04/28 14:03:20;;;;;;;3.38;2.55;;;;;;;;;;5054543;28;20216;-87
2022/04/28 14:05:48;;;;;;;2.50;2.25;;;;;;;;;;5053890;28;20242;-88
2022/04/28 14:08:15;;;;;;;3.67;2.42;;;;;;;;;;5054561;28;20198;-89
2022/04/28 14:10:42;;;;;;;2.40;2.25;;;;;;;;;;5054142;28;20234;-87
2022/04/28 14:13:11;;;;;;;3.88;2.47;;;;;;;;;;5054945;28;20204;-88
2022/04/28 14:15:38;;;;;;;2.40;2.20;;;;;;;;;;5053818;28;20249;-88
2022/04/28 14:18:06;;;;;;;2.72;2.30;;;;;;;;;;5054164;28;20280;-88
2022/04/28 14:20:33;;;;;;;2.40;2.20;;;;;;;;;;5053961;28;20245;-89
2022/04/28 14:23:00;;;;;;;2.55;2.35;;;;;;;;;;5054467;28;20563;-89
2022/04/28 14:25:27;;;;;;;2.70;2.50;;;;;;;;;;5053082;28;20606;-88
2022/04/28 14:27:54;;;;;;;2.50;2.30;;;;;;;;;;5054082;28;20219;-88
2022/04/28 14:30:24;;;;;;;2.40;2.20;;;;;;;;;;5052639;28;20237;-88
2022/04/28 14:32:51;;;;;;;3.60;2.47;;;;;;;;;;5054159;28;20239;-87
2022/04/28 14:35:18;;;;;;;2.50;2.30;;;;;;;;;;5052546;28;20241;-87
2022/04/28 14:37:46;;;;;;;2.50;2.30;;;;;;;;;;5054324;28;20206;-88
2022/04/28 14:40:14;;;;;;;2.30;2.10;;;;;;;;;;5052786;28;20254;-88
2022/04/28 14:42:41;;;;;;;2.13;1.98;;;;;;;;;;5053626;28;20590;-88
2022/04/28 14:45:09;;;;;;;2.40;2.20;;;;;;;;;;5052737;28;20230;-88
2022/04/28 14:47:37;;;;;;;2.58;2.17;;;;;;;;;;5052945;28;20213;-89
2022/04/28 14:52:52;;;;;;;2.00;1.90;;;;;;;;;;5053313;28;20673;-89
2022/04/28 14:55:20;;;;;;;2.03;1.90;;;;;;;;;;5052485;28;20238;-88
2022/04/28 14:57:48;;;;;;;1.95;1.85;;;;;;;;;;5052999;28;20255;-88
2022/04/28 15:00:16;;;;;;;2.70;2.33;;;;;;;;;;5052190;28;20238;-88
2022/04/28 15:02:46;;;;;;;2.25;2.10;;;;;;;;;;5053324;28;20579;-89
2022/04/28 15:05:14;;;;;;;2.40;2.20;;;;;;;;;;5052804;28;20237;-87
2022/04/28 15:07:41;;;;;;;2.38;2.17;;;;;;;;;;5053103;28;20218;-88
2022/04/28 15:10:08;;;;;;;2.50;1.90;;;;;;;;;;5052212;28;20240;-88
2022/04/28 15:12:35;;;;;;;2.47;2.28;;;;;;;;;;5052832;28;20206;-89
2022/04/28 15:15:03;;;;;;;2.92;2.47;;;;;;;;;;5052093;28;20269;-88
2022/04/28 15:17:31;;;;;;;2.88;2.30;;;;;;;;;;5052745;28;20808;-89
2022/04/28 15:19:59;;;;;;;3.13;2.40;;;;;;;;;;5052664;28;20230;-89
2022/04/28 15:22:27;;;;;;;2.67;2.35;;;;;;;;;;5054238;28;20209;-88
2022/04/28 15:24:54;;;;;;;3.08;2.47;;;;;;;;;;5052683;28;20226;-87
2022/04/28 15:27:23;;;;;;;2.65;2.22;;;;;;;;;;5052723;28;20214;-87